sensor_id;sensor_type;location;lat;lon;timestamp;pressure;altitude;pressure_sealevel;temperature;humidity
72587;BME280;60621;49.576;11.024;2022-07-29T00:00:14;98195.69;;;22.33;38.06
72587;BME280;60621;49.576;11.024;2022-07-29T00:01:16;98197.50;;;22.36;38.00
72587;BME280;60621;49.576;11.024;2022-07-29T00:02:20;98195.13;;;22.38;37.58
72587;BME280;60621;49.576;11.024;2022-07-29T00:03:21;98190.81;;;22.40;37.85
72587;BME280;60621;49.576;11.024;2022-07-29T00:04:23;98186.31;;;22.37;37.76
72587;BME280;60621;49.576;11.024;2022-07-29T00:05:24;98192.88;;;22.36;37.96
72587;BME280;60621;49.576;11.024;2022-07-29T00:06:26;98193.63;;;22.37;37.59
72587;BME280;60621;49.576;11.024;2022-07-29T00:07:28;98186.75;;;22.36;37.63
72587;BME280;60621;49.576;11.024;2022-07-29T00:08:29;98189.13;;;22.34;37.81
72587;BME280;60621;49.576;11.024;2022-07-29T00:09:31;98180.63;;;22.35;37.47
72587;BME280;60621;49.576;11.024;2022-07-29T00:10:51;98177.50;;;22.37;38.07
72587;BME280;60621;49.576;11.024;2022-07-29T00:11:55;98179.00;;;22.38;37.58
72587;BME280;60621;49.576;11.024;2022-07-29T00:12:58;98173.31;;;22.36;37.74
72587;BME280;60621;49.576;11.024;2022-07-29T00:13:59;98174.50;;;22.35;37.42
72587;BME280;60621;49.576;11.024;2022-07-29T00:15:01;98171.06;;;22.34;37.54
72587;BME280;60621;49.576;11.024;2022-07-29T00:16:03;98175.38;;;22.32;37.82
72587;BME280;60621;49.576;11.024;2022-07-29T00:17:05;98171.16;;;22.31;37.72
72587;BME280;60621;49.576;11.024;2022-07-29T00:18:07;98172.69;;;22.32;37.67
72587;BME280;60621;49.576;11.024;2022-07-29T00:19:08;98166.44;;;22.35;37.69
72587;BME280;60621;49.576;11.024;2022-07-29T00:20:11;98164.63;;;22.32;37.43
72587;BME280;60621;49.576;11.024;2022-07-29T00:21:12;98166.53;;;22.31;37.78
72587;BME280;60621;49.576;11.024;2022-07-29T00:22:14;98165.38;;;22.32;37.73
72587;BME280;60621;49.576;11.024;2022-07-29T00:23:16;98163.13;;;22.31;37.67
72587;BME280;60621;49.576;11.024;2022-07-29T00:24:17;98156.56;;;22.32;37.70
72587;BME280;60621;49.576;11.024;2022-07-29T00:25:19;98153.31;;;22.37;37.51
72587;BME280;60621;49.576;11.024;2022-07-29T00:26:21;98152.13;;;22.38;37.32
72587;BME280;60621;49.576;11.024;2022-07-29T00:27:22;98153.06;;;22.44;37.23
72587;BME280;60621;49.576;11.024;2022-07-29T00:28:24;98147.38;;;22.42;37.09
72587;BME280;60621;49.576;11.024;2022-07-29T00:29:26;98150.50;;;22.40;37.32
72587;BME280;60621;49.576;11.024;2022-07-29T00:30:35;98147.63;;;22.35;37.26
72587;BME280;60621;49.576;11.024;2022-07-29T00:31:37;98150.31;;;22.35;37.30
72587;BME280;60621;49.576;11.024;2022-07-29T00:32:39;98156.44;;;22.35;37.42
72587;BME280;60621;49.576;11.024;2022-07-29T00:33:40;98147.75;;;22.31;37.21
72587;BME280;60621;49.576;11.024;2022-07-29T00:34:42;98153.13;;;22.31;37.43
72587;BME280;60621;49.576;11.024;2022-07-29T00:36:02;98145.41;;;22.20;37.69
72587;BME280;60621;49.576;11.024;2022-07-29T00:37:04;98148.84;;;22.21;37.69
72587;BME280;60621;49.576;11.024;2022-07-29T00:38:08;98144.22;;;22.21;37.72
72587;BME280;60621;49.576;11.024;2022-07-29T00:39:09;98151.00;;;22.26;37.11
72587;BME280;60621;49.576;11.024;2022-07-29T00:40:11;98146.81;;;22.25;37.24
72587;BME280;60621;49.576;11.024;2022-07-29T00:41:13;98147.56;;;22.26;37.18
72587;BME280;60621;49.576;11.024;2022-07-29T00:42:14;98148.63;;;22.28;37.44
72587;BME280;60621;49.576;11.024;2022-07-29T00:43:16;98152.28;;;22.21;37.50
72587;BME280;60621;49.576;11.024;2022-07-29T00:44:18;98155.94;;;22.28;37.31
72587;BME280;60621;49.576;11.024;2022-07-29T00:45:19;98146.25;;;22.30;37.21
72587;BME280;60621;49.576;11.024;2022-07-29T00:46:21;98153.88;;;22.32;37.07
72587;BME280;60621;49.576;11.024;2022-07-29T00:47:23;98149.13;;;22.36;37.32
72587;BME280;60621;49.576;11.024;2022-07-29T00:48:24;98155.50;;;22.29;37.09
72587;BME280;60621;49.576;11.024;2022-07-29T00:49:26;98152.50;;;22.27;37.31
72587;BME280;60621;49.576;11.024;2022-07-29T00:50:28;98151.19;;;22.32;37.05
72587;BME280;60621;49.576;11.024;2022-07-29T00:51:30;98156.88;;;22.34;37.03
72587;BME280;60621;49.576;11.024;2022-07-29T00:52:33;98147.00;;;22.31;37.35
72587;BME280;60621;49.576;11.024;2022-07-29T00:53:35;98146.69;;;22.29;37.42
72587;BME280;60621;49.576;11.024;2022-07-29T00:54:38;98143.56;;;22.30;37.00
72587;BME280;60621;49.576;11.024;2022-07-29T00:55:45;98150.00;;;22.33;37.25
72587;BME280;60621;49.576;11.024;2022-07-29T00:56:47;98149.56;;;22.34;37.16
72587;BME280;60621;49.576;11.024;2022-07-29T00:57:49;98145.81;;;22.32;37.20
72587;BME280;60621;49.576;11.024;2022-07-29T00:58:51;98145.06;;;22.31;37.13
72587;BME280;60621;49.576;11.024;2022-07-29T00:59:52;98145.50;;;22.30;37.41
72587;BME280;60621;49.576;11.024;2022-07-29T01:00:54;98148.06;;;22.33;37.13
72587;BME280;60621;49.576;11.024;2022-07-29T01:01:56;98143.44;;;22.34;37.11
72587;BME280;60621;49.576;11.024;2022-07-29T01:02:58;98141.94;;;22.33;37.25
72587;BME280;60621;49.576;11.024;2022-07-29T01:03:59;98136.13;;;22.34;37.10
72587;BME280;60621;49.576;11.024;2022-07-29T01:05:02;98133.88;;;22.33;36.80
72587;BME280;60621;49.576;11.024;2022-07-29T01:06:05;98140.13;;;22.30;37.17
72587;BME280;60621;49.576;11.024;2022-07-29T01:07:07;98140.47;;;22.32;37.12
72587;BME280;60621;49.576;11.024;2022-07-29T01:08:11;98135.81;;;22.32;37.08
72587;BME280;60621;49.576;11.024;2022-07-29T01:09:14;98138.69;;;22.38;36.69
72587;BME280;60621;49.576;11.024;2022-07-29T01:10:36;98138.69;;;22.38;36.94
72587;BME280;60621;49.576;11.024;2022-07-29T01:11:39;98134.81;;;22.39;36.67
72587;BME280;60621;49.576;11.024;2022-07-29T01:12:43;98140.63;;;22.37;36.84
72587;BME280;60621;49.576;11.024;2022-07-29T01:13:45;98140.75;;;22.34;37.12
72587;BME280;60621;49.576;11.024;2022-07-29T01:14:49;98136.69;;;22.29;37.10
72587;BME280;60621;49.576;11.024;2022-07-29T01:15:56;98141.31;;;22.29;36.99
72587;BME280;60621;49.576;11.024;2022-07-29T01:17:10;98136.25;;;22.31;36.98
72587;BME280;60621;49.576;11.024;2022-07-29T01:18:28;98144.75;;;22.29;36.91
72587;BME280;60621;49.576;11.024;2022-07-29T01:20:24;98142.50;;;22.28;36.99
72587;BME280;60621;49.576;11.024;2022-07-29T01:21:46;98143.19;;;22.19;37.10
72587;BME280;60621;49.576;11.024;2022-07-29T01:24:33;98152.84;;;22.16;37.48
72587;BME280;60621;49.576;11.024;2022-07-29T01:26:59;98164.97;;;22.21;37.33
72587;BME280;60621;49.576;11.024;2022-07-29T01:30:24;98174.22;;;22.20;37.43
72587;BME280;60621;49.576;11.024;2022-07-29T01:31:35;98170.91;;;22.16;37.55
72587;BME280;60621;49.576;11.024;2022-07-29T01:33:00;98174.47;;;22.13;37.56
72587;BME280;60621;49.576;11.024;2022-07-29T01:34:05;98165.75;;;22.09;37.81
72587;BME280;60621;49.576;11.024;2022-07-29T01:35:21;98168.00;;;22.10;37.82
72587;BME280;60621;49.576;11.024;2022-07-29T01:36:47;98161.88;;;22.10;37.97
72587;BME280;60621;49.576;11.024;2022-07-29T01:37:55;98164.47;;;22.13;37.78
72587;BME280;60621;49.576;11.024;2022-07-29T01:39:20;98164.03;;;22.15;37.94
72587;BME280;60621;49.576;11.024;2022-07-29T01:40:31;98165.97;;;22.14;37.84
72587;BME280;60621;49.576;11.024;2022-07-29T01:41:38;98161.78;;;22.13;38.22
72587;BME280;60621;49.576;11.024;2022-07-29T01:42:43;98158.44;;;22.09;38.31
72587;BME280;60621;49.576;11.024;2022-07-29T01:43:55;98162.22;;;22.12;38.22
72587;BME280;60621;49.576;11.024;2022-07-29T01:45:04;98160.59;;;22.14;38.27
72587;BME280;60621;49.576;11.024;2022-07-29T01:46:12;98155.13;;;22.18;37.70
72587;BME280;60621;49.576;11.024;2022-07-29T01:47:19;98153.59;;;22.17;38.25
72587;BME280;60621;49.576;11.024;2022-07-29T01:48:24;98161.47;;;22.11;38.60
72587;BME280;60621;49.576;11.024;2022-07-29T01:49:31;98152.31;;;22.09;38.79
72587;BME280;60621;49.576;11.024;2022-07-29T01:50:41;98157.38;;;22.07;38.58
72587;BME280;60621;49.576;11.024;2022-07-29T01:51:50;98162.00;;;22.06;38.99
72587;BME280;60621;49.576;11.024;2022-07-29T01:52:56;98160.06;;;22.07;38.81
72587;BME280;60621;49.576;11.024;2022-07-29T01:54:16;98168.84;;;22.07;38.68
72587;BME280;60621;49.576;11.024;2022-07-29T01:55:22;98163.94;;;22.06;38.72
72587;BME280;60621;49.576;11.024;2022-07-29T01:56:26;98165.13;;;22.05;38.65
72587;BME280;60621;49.576;11.024;2022-07-29T01:57:33;98160.50;;;22.05;38.53
72587;BME280;60621;49.576;11.024;2022-07-29T01:58:38;98155.00;;;22.09;38.39
72587;BME280;60621;49.576;11.024;2022-07-29T01:59:43;98156.09;;;22.11;38.73
72587;BME280;60621;49.576;11.024;2022-07-29T02:00:47;98150.31;;;22.13;38.51
72587;BME280;60621;49.576;11.024;2022-07-29T02:01:50;98157.59;;;22.12;38.49
72587;BME280;60621;49.576;11.024;2022-07-29T02:02:55;98152.88;;;22.04;38.82
72587;BME280;60621;49.576;11.024;2022-07-29T02:03:59;98158.81;;;21.98;38.82
72587;BME280;60621;49.576;11.024;2022-07-29T02:05:05;98158.34;;;22.00;38.93
72587;BME280;60621;49.576;11.024;2022-07-29T02:06:09;98151.16;;;21.97;39.25
72587;BME280;60621;49.576;11.024;2022-07-29T02:07:13;98151.91;;;21.97;39.50
72587;BME280;60621;49.576;11.024;2022-07-29T02:08:17;98151.72;;;21.92;39.49
72587;BME280;60621;49.576;11.024;2022-07-29T02:09:21;98146.03;;;21.90;39.49
72587;BME280;60621;49.576;11.024;2022-07-29T02:10:26;98147.00;;;21.83;39.56
72587;BME280;60621;49.576;11.024;2022-07-29T02:11:31;98148.31;;;21.79;40.06
72587;BME280;60621;49.576;11.024;2022-07-29T02:12:35;98149.94;;;21.76;40.03
72587;BME280;60621;49.576;11.024;2022-07-29T02:13:38;98156.06;;;21.77;40.11
72587;BME280;60621;49.576;11.024;2022-07-29T02:14:41;98157.25;;;21.76;39.87
72587;BME280;60621;49.576;11.024;2022-07-29T02:15:45;98150.38;;;21.75;40.17
72587;BME280;60621;49.576;11.024;2022-07-29T02:16:50;98150.03;;;21.72;40.54
72587;BME280;60621;49.576;11.024;2022-07-29T02:18:01;98154.03;;;21.68;40.79
72587;BME280;60621;49.576;11.024;2022-07-29T02:19:03;98158.34;;;21.65;40.96
72587;BME280;60621;49.576;11.024;2022-07-29T02:20:07;98157.25;;;21.63;41.18
72587;BME280;60621;49.576;11.024;2022-07-29T02:21:11;98157.69;;;21.61;41.33
72587;BME280;60621;49.576;11.024;2022-07-29T02:22:18;98157.34;;;21.59;41.21
72587;BME280;60621;49.576;11.024;2022-07-29T02:23:23;98153.63;;;21.57;41.04
72587;BME280;60621;49.576;11.024;2022-07-29T02:24:26;98151.78;;;21.54;40.89
72587;BME280;60621;49.576;11.024;2022-07-29T02:25:27;98155.75;;;21.49;41.18
72587;BME280;60621;49.576;11.024;2022-07-29T02:26:40;98156.09;;;21.51;41.08
72587;BME280;60621;49.576;11.024;2022-07-29T02:27:43;98160.69;;;21.51;41.03
72587;BME280;60621;49.576;11.024;2022-07-29T02:28:47;98152.31;;;21.48;41.03
72587;BME280;60621;49.576;11.024;2022-07-29T02:29:50;98153.72;;;21.53;40.92
72587;BME280;60621;49.576;11.024;2022-07-29T02:30:53;98150.19;;;21.56;40.92
72587;BME280;60621;49.576;11.024;2022-07-29T02:31:57;98148.25;;;21.57;41.06
72587;BME280;60621;49.576;11.024;2022-07-29T02:33:01;98149.00;;;21.57;40.97
72587;BME280;60621;49.576;11.024;2022-07-29T02:34:06;98148.56;;;21.59;40.92
72587;BME280;60621;49.576;11.024;2022-07-29T02:35:09;98146.84;;;21.52;41.87
72587;BME280;60621;49.576;11.024;2022-07-29T02:36:11;98145.91;;;21.46;42.07
72587;BME280;60621;49.576;11.024;2022-07-29T02:37:15;98147.69;;;21.36;41.94
72587;BME280;60621;49.576;11.024;2022-07-29T02:38:18;98153.94;;;21.33;41.77
72587;BME280;60621;49.576;11.024;2022-07-29T02:39:42;98147.09;;;21.32;41.62
72587;BME280;60621;49.576;11.024;2022-07-29T02:40:45;98149.94;;;21.25;41.59
72587;BME280;60621;49.576;11.024;2022-07-29T02:41:50;98139.03;;;21.32;41.82
72587;BME280;60621;49.576;11.024;2022-07-29T02:42:52;98137.41;;;21.35;41.84
72587;BME280;60621;49.576;11.024;2022-07-29T02:43:56;98138.50;;;21.37;41.54
72587;BME280;60621;49.576;11.024;2022-07-29T02:44:58;98142.34;;;21.36;41.74
72587;BME280;60621;49.576;11.024;2022-07-29T02:46:00;98147.59;;;21.27;41.95
72587;BME280;60621;49.576;11.024;2022-07-29T02:47:21;98151.66;;;21.19;42.69
72587;BME280;60621;49.576;11.024;2022-07-29T02:48:32;98154.13;;;21.13;42.56
72587;BME280;60621;49.576;11.024;2022-07-29T02:49:42;98148.22;;;21.18;42.43
72587;BME280;60621;49.576;11.024;2022-07-29T02:50:50;98141.59;;;21.23;42.33
72587;BME280;60621;49.576;11.024;2022-07-29T02:51:57;98144.34;;;21.19;42.45
72587;BME280;60621;49.576;11.024;2022-07-29T02:53:07;98151.19;;;21.08;42.69
72587;BME280;60621;49.576;11.024;2022-07-29T02:54:18;98149.06;;;21.03;43.31
72587;BME280;60621;49.576;11.024;2022-07-29T02:55:34;98146.91;;;20.97;43.19
72587;BME280;60621;49.576;11.024;2022-07-29T02:56:39;98154.63;;;20.95;43.09
72587;BME280;60621;49.576;11.024;2022-07-29T02:57:48;98155.47;;;20.92;43.23
72587;BME280;60621;49.576;11.024;2022-07-29T02:58:58;98151.31;;;20.91;43.28
72587;BME280;60621;49.576;11.024;2022-07-29T03:00:05;98153.97;;;20.91;43.22
72587;BME280;60621;49.576;11.024;2022-07-29T03:01:20;98151.19;;;20.82;43.49
72587;BME280;60621;49.576;11.024;2022-07-29T03:02:25;98151.28;;;20.79;43.61
72587;BME280;60621;49.576;11.024;2022-07-29T03:03:34;98157.28;;;20.83;43.58
72587;BME280;60621;49.576;11.024;2022-07-29T03:04:39;98162.84;;;20.76;43.89
72587;BME280;60621;49.576;11.024;2022-07-29T03:05:42;98149.13;;;20.74;44.14
72587;BME280;60621;49.576;11.024;2022-07-29T03:06:44;98147.94;;;20.75;44.04
72587;BME280;60621;49.576;11.024;2022-07-29T03:08:02;98151.91;;;20.70;44.12
72587;BME280;60621;49.576;11.024;2022-07-29T03:09:10;98150.63;;;20.75;43.97
72587;BME280;60621;49.576;11.024;2022-07-29T03:10:14;98148.06;;;20.71;43.94
72587;BME280;60621;49.576;11.024;2022-07-29T03:11:16;98146.97;;;20.68;44.16
72587;BME280;60621;49.576;11.024;2022-07-29T03:12:19;98153.59;;;20.64;44.70
72587;BME280;60621;49.576;11.024;2022-07-29T03:13:21;98151.34;;;20.62;44.71
72587;BME280;60621;49.576;11.024;2022-07-29T03:14:24;98147.34;;;20.54;44.83
72587;BME280;60621;49.576;11.024;2022-07-29T03:15:27;98148.69;;;20.46;44.97
72587;BME280;60621;49.576;11.024;2022-07-29T03:16:29;98155.97;;;20.45;44.85
72587;BME280;60621;49.576;11.024;2022-07-29T03:17:31;98154.16;;;20.42;44.93
72587;BME280;60621;49.576;11.024;2022-07-29T03:18:34;98157.41;;;20.50;44.66
72587;BME280;60621;49.576;11.024;2022-07-29T03:19:36;98152.47;;;20.49;44.65
72587;BME280;60621;49.576;11.024;2022-07-29T03:20:38;98153.97;;;20.50;44.83
72587;BME280;60621;49.576;11.024;2022-07-29T03:21:40;98149.38;;;20.50;44.74
72587;BME280;60621;49.576;11.024;2022-07-29T03:22:43;98147.44;;;20.51;44.43
72587;BME280;60621;49.576;11.024;2022-07-29T03:23:47;98155.81;;;20.53;44.17
72587;BME280;60621;49.576;11.024;2022-07-29T03:24:49;98154.03;;;20.46;44.36
72587;BME280;60621;49.576;11.024;2022-07-29T03:25:51;98144.72;;;20.38;44.83
72587;BME280;60621;49.576;11.024;2022-07-29T03:26:54;98144.72;;;20.38;44.76
72587;BME280;60621;49.576;11.024;2022-07-29T03:27:56;98148.56;;;20.37;45.04
72587;BME280;60621;49.576;11.024;2022-07-29T03:28:58;98154.00;;;20.33;45.24
72587;BME280;60621;49.576;11.024;2022-07-29T03:29:59;98145.31;;;20.29;44.80
72587;BME280;60621;49.576;11.024;2022-07-29T03:31:01;98145.09;;;20.24;45.08
72587;BME280;60621;49.576;11.024;2022-07-29T03:32:04;98141.22;;;20.25;45.26
72587;BME280;60621;49.576;11.024;2022-07-29T03:33:08;98143.38;;;20.30;45.17
72587;BME280;60621;49.576;11.024;2022-07-29T03:34:14;98139.97;;;20.29;45.35
72587;BME280;60621;49.576;11.024;2022-07-29T03:35:16;98144.47;;;20.32;44.96
72587;BME280;60621;49.576;11.024;2022-07-29T03:36:17;98140.28;;;20.31;45.09
72587;BME280;60621;49.576;11.024;2022-07-29T03:37:19;98140.25;;;20.18;45.38
72587;BME280;60621;49.576;11.024;2022-07-29T03:38:24;98147.53;;;20.18;45.69
72587;BME280;60621;49.576;11.024;2022-07-29T03:39:29;98144.84;;;20.18;45.56
72587;BME280;60621;49.576;11.024;2022-07-29T03:40:38;98143.31;;;20.17;45.72
72587;BME280;60621;49.576;11.024;2022-07-29T03:41:42;98139.16;;;20.16;45.82
72587;BME280;60621;49.576;11.024;2022-07-29T03:42:46;98139.16;;;20.16;45.67
72587;BME280;60621;49.576;11.024;2022-07-29T03:43:48;98138.47;;;20.12;45.82
72587;BME280;60621;49.576;11.024;2022-07-29T03:44:51;98146.00;;;20.17;45.82
72587;BME280;60621;49.576;11.024;2022-07-29T03:45:54;98141.06;;;20.15;45.89
72587;BME280;60621;49.576;11.024;2022-07-29T03:46:59;98144.69;;;20.09;45.79
72587;BME280;60621;49.576;11.024;2022-07-29T03:48:08;98133.63;;;20.07;46.12
72587;BME280;60621;49.576;11.024;2022-07-29T03:49:12;98137.50;;;20.06;46.16
72587;BME280;60621;49.576;11.024;2022-07-29T03:50:17;98140.59;;;20.04;46.07
72587;BME280;60621;49.576;11.024;2022-07-29T03:51:20;98139.84;;;20.04;46.10
72587;BME280;60621;49.576;11.024;2022-07-29T03:52:34;98143.13;;;19.95;46.55
72587;BME280;60621;49.576;11.024;2022-07-29T03:53:36;98138.09;;;19.97;46.55
72587;BME280;60621;49.576;11.024;2022-07-29T03:54:39;98145.06;;;19.94;46.79
72587;BME280;60621;49.576;11.024;2022-07-29T03:55:44;98144.88;;;19.85;46.96
72587;BME280;60621;49.576;11.024;2022-07-29T03:56:48;98147.13;;;19.87;46.89
72587;BME280;60621;49.576;11.024;2022-07-29T03:57:51;98144.22;;;19.81;47.04
72587;BME280;60621;49.576;11.024;2022-07-29T03:58:54;98140.38;;;19.82;46.64
72587;BME280;60621;49.576;11.024;2022-07-29T03:59:56;98147.22;;;19.83;46.91
72587;BME280;60621;49.576;11.024;2022-07-29T04:00:59;98148.91;;;19.77;47.08
72587;BME280;60621;49.576;11.024;2022-07-29T04:02:03;98150.47;;;19.75;47.42
72587;BME280;60621;49.576;11.024;2022-07-29T04:03:05;98140.94;;;19.74;47.25
72587;BME280;60621;49.576;11.024;2022-07-29T04:04:12;98152.09;;;19.72;47.19
72587;BME280;60621;49.576;11.024;2022-07-29T04:05:14;98155.84;;;19.75;47.14
72587;BME280;60621;49.576;11.024;2022-07-29T04:06:16;98161.97;;;19.75;47.28
72587;BME280;60621;49.576;11.024;2022-07-29T04:07:18;98164.13;;;19.80;47.15
72587;BME280;60621;49.576;11.024;2022-07-29T04:08:19;98156.44;;;19.82;46.87
72587;BME280;60621;49.576;11.024;2022-07-29T04:09:21;98158.03;;;19.80;47.11
72587;BME280;60621;49.576;11.024;2022-07-29T04:10:22;98158.78;;;19.80;47.03
72587;BME280;60621;49.576;11.024;2022-07-29T04:11:31;98159.19;;;19.79;47.00
72587;BME280;60621;49.576;11.024;2022-07-29T04:12:53;98151.34;;;19.72;47.27
72587;BME280;60621;49.576;11.024;2022-07-29T04:13:55;98157.44;;;19.72;47.14
72587;BME280;60621;49.576;11.024;2022-07-29T04:14:56;98153.00;;;19.65;46.80
72587;BME280;60621;49.576;11.024;2022-07-29T04:15:58;98157.19;;;19.66;47.29
72587;BME280;60621;49.576;11.024;2022-07-29T04:17:01;98152.91;;;19.69;46.89
72587;BME280;60621;49.576;11.024;2022-07-29T04:18:04;98161.38;;;19.67;46.73
72587;BME280;60621;49.576;11.024;2022-07-29T04:19:06;98162.53;;;19.66;46.82
72587;BME280;60621;49.576;11.024;2022-07-29T04:20:08;98155.34;;;19.63;47.07
72587;BME280;60621;49.576;11.024;2022-07-29T04:21:09;98165.75;;;19.58;47.01
72587;BME280;60621;49.576;11.024;2022-07-29T04:22:11;98159.31;;;19.55;47.10
72587;BME280;60621;49.576;11.024;2022-07-29T04:23:12;98156.63;;;19.55;46.75
72587;BME280;60621;49.576;11.024;2022-07-29T04:24:14;98156.47;;;19.46;47.09
72587;BME280;60621;49.576;11.024;2022-07-29T04:25:16;98156.13;;;19.44;47.41
72587;BME280;60621;49.576;11.024;2022-07-29T04:26:19;98156.81;;;19.48;47.45
72587;BME280;60621;49.576;11.024;2022-07-29T04:27:21;98153.72;;;19.50;47.65
72587;BME280;60621;49.576;11.024;2022-07-29T04:28:22;98159.06;;;19.50;47.68
72587;BME280;60621;49.576;11.024;2022-07-29T04:29:24;98165.50;;;19.52;47.31
72587;BME280;60621;49.576;11.024;2022-07-29T04:30:25;98167.75;;;19.54;47.37
72587;BME280;60621;49.576;11.024;2022-07-29T04:31:27;98165.09;;;19.54;47.25
72587;BME280;60621;49.576;11.024;2022-07-29T04:32:29;98163.72;;;19.45;47.68
72587;BME280;60621;49.576;11.024;2022-07-29T04:33:30;98164.22;;;19.40;47.97
72587;BME280;60621;49.576;11.024;2022-07-29T04:34:32;98161.22;;;19.38;48.03
72587;BME280;60621;49.576;11.024;2022-07-29T04:35:36;98168.25;;;19.32;47.99
72587;BME280;60621;49.576;11.024;2022-07-29T04:36:52;98165.28;;;19.27;48.13
72587;BME280;60621;49.576;11.024;2022-07-29T04:37:53;98160.69;;;19.27;47.87
72587;BME280;60621;49.576;11.024;2022-07-29T04:38:55;98169.75;;;19.33;48.22
72587;BME280;60621;49.576;11.024;2022-07-29T04:39:57;98165.91;;;19.34;48.08
72587;BME280;60621;49.576;11.024;2022-07-29T04:40:58;98170.81;;;19.36;47.68
72587;BME280;60621;49.576;11.024;2022-07-29T04:42:00;98169.00;;;19.33;47.94
72587;BME280;60621;49.576;11.024;2022-07-29T04:43:02;98171.56;;;19.36;47.93
72587;BME280;60621;49.576;11.024;2022-07-29T04:44:06;98171.09;;;19.41;47.98
72587;BME280;60621;49.576;11.024;2022-07-29T04:45:09;98171.09;;;19.41;48.07
72587;BME280;60621;49.576;11.024;2022-07-29T04:46:10;98163.47;;;19.40;47.99
72587;BME280;60621;49.576;11.024;2022-07-29T04:47:12;98174.94;;;19.40;48.11
72587;BME280;60621;49.576;11.024;2022-07-29T04:48:14;98164.66;;;19.39;47.91
72587;BME280;60621;49.576;11.024;2022-07-29T04:49:15;98157.88;;;19.34;48.49
72587;BME280;60621;49.576;11.024;2022-07-29T04:50:17;98160.63;;;19.31;48.93
72587;BME280;60621;49.576;11.024;2022-07-29T04:51:19;98166.81;;;19.28;48.56
72587;BME280;60621;49.576;11.024;2022-07-29T04:52:20;98159.56;;;19.28;48.67
72587;BME280;60621;49.576;11.024;2022-07-29T04:53:22;98163.38;;;19.27;48.82
72587;BME280;60621;49.576;11.024;2022-07-29T04:54:23;98166.47;;;19.26;48.52
72587;BME280;60621;49.576;11.024;2022-07-29T04:55:26;98163.53;;;19.20;48.94
72587;BME280;60621;49.576;11.024;2022-07-29T04:56:27;98167.97;;;19.27;48.80
72587;BME280;60621;49.576;11.024;2022-07-29T04:57:29;98169.06;;;19.29;49.01
72587;BME280;60621;49.576;11.024;2022-07-29T04:58:31;98179.41;;;19.27;48.69
72587;BME280;60621;49.576;11.024;2022-07-29T04:59:32;98177.91;;;19.26;48.56
72587;BME280;60621;49.576;11.024;2022-07-29T05:00:34;98174.50;;;19.26;48.65
72587;BME280;60621;49.576;11.024;2022-07-29T05:01:35;98169.56;;;19.24;48.64
72587;BME280;60621;49.576;11.024;2022-07-29T05:02:37;98178.06;;;19.19;49.10
72587;BME280;60621;49.576;11.024;2022-07-29T05:03:39;98171.63;;;19.16;49.27
72587;BME280;60621;49.576;11.024;2022-07-29T05:04:40;98171.63;;;19.16;49.58
72587;BME280;60621;49.576;11.024;2022-07-29T05:05:42;98174.72;;;19.15;49.83
72587;BME280;60621;49.576;11.024;2022-07-29T05:06:43;98175.72;;;19.21;49.63
72587;BME280;60621;49.576;11.024;2022-07-29T05:07:45;98183.69;;;19.25;49.95
72587;BME280;60621;49.576;11.024;2022-07-29T05:08:46;98174.84;;;19.28;49.89
72587;BME280;60621;49.576;11.024;2022-07-29T05:09:48;98181.34;;;19.27;49.94
72587;BME280;60621;49.576;11.024;2022-07-29T05:10:50;98184.31;;;19.32;49.78
72587;BME280;60621;49.576;11.024;2022-07-29T05:11:51;98182.63;;;19.38;49.30
72587;BME280;60621;49.576;11.024;2022-07-29T05:12:53;98183.81;;;19.37;49.24
72587;BME280;60621;49.576;11.024;2022-07-29T05:13:54;98188.16;;;19.48;49.04
72587;BME280;60621;49.576;11.024;2022-07-29T05:14:56;98185.81;;;19.50;48.95
72587;BME280;60621;49.576;11.024;2022-07-29T05:15:57;98185.81;;;19.50;48.88
72587;BME280;60621;49.576;11.024;2022-07-29T05:16:59;98180.13;;;19.48;48.80
72587;BME280;60621;49.576;11.024;2022-07-29T05:18:01;98185.13;;;19.45;48.88
72587;BME280;60621;49.576;11.024;2022-07-29T05:19:03;98179.47;;;19.43;48.98
72587;BME280;60621;49.576;11.024;2022-07-29T05:20:05;98178.78;;;19.39;49.22
72587;BME280;60621;49.576;11.024;2022-07-29T05:21:07;98186.72;;;19.43;48.82
72587;BME280;60621;49.576;11.024;2022-07-29T05:22:08;98185.06;;;19.49;48.62
72587;BME280;60621;49.576;11.024;2022-07-29T05:23:10;98183.31;;;19.42;48.61
72587;BME280;60621;49.576;11.024;2022-07-29T05:24:14;98186.81;;;19.39;49.46
72587;BME280;60621;49.576;11.024;2022-07-29T05:25:16;98181.94;;;19.34;49.29
72587;BME280;60621;49.576;11.024;2022-07-29T05:26:18;98184.19;;;19.36;49.33
72587;BME280;60621;49.576;11.024;2022-07-29T05:27:19;98182.47;;;19.45;49.31
72587;BME280;60621;49.576;11.024;2022-07-29T05:28:21;98184.81;;;19.43;49.54
72587;BME280;60621;49.576;11.024;2022-07-29T05:29:22;98184.06;;;19.43;49.64
72587;BME280;60621;49.576;11.024;2022-07-29T05:30:44;98187.81;;;19.45;49.72
72587;BME280;60621;49.576;11.024;2022-07-29T05:31:45;98191.91;;;19.50;49.30
72587;BME280;60621;49.576;11.024;2022-07-29T05:32:47;98181.13;;;19.54;49.12
72587;BME280;60621;49.576;11.024;2022-07-29T05:33:48;98184.91;;;19.56;49.35
72587;BME280;60621;49.576;11.024;2022-07-29T05:34:50;98181.06;;;19.57;48.91
72587;BME280;60621;49.576;11.024;2022-07-29T05:35:52;98182.91;;;19.60;49.18
72587;BME280;60621;49.576;11.024;2022-07-29T05:37:00;98183.28;;;19.62;49.02
72587;BME280;60621;49.576;11.024;2022-07-29T05:38:01;98188.13;;;19.67;49.03
72587;BME280;60621;49.576;11.024;2022-07-29T05:39:03;98189.56;;;19.72;48.32
72587;BME280;60621;49.576;11.024;2022-07-29T05:40:05;98186.88;;;19.72;47.86
72587;BME280;60621;49.576;11.024;2022-07-29T05:41:07;98194.47;;;19.74;48.29
72587;BME280;60621;49.576;11.024;2022-07-29T05:42:09;98197.41;;;19.79;47.56